sensor_id;sensor_type;location;lat;lon;timestamp;P1;durP1;ratioP1;P2;durP2;ratioP2
5339;SDS011;2692;48.848;8.924;2023-04-29T00:01:42;2.13;;;0.70;;
5339;SDS011;2692;48.848;8.924;2023-04-29T00:04:07;1.00;;;0.50;;
5339;SDS011;2692;48.848;8.924;2023-04-29T00:06:33;1.07;;;0.43;;
5339;SDS011;2692;48.848;8.924;2023-04-29T00:08:58;1.40;;;0.60;;
5339;SDS011;2692;48.848;8.924;2023-04-29T00:14:45;1.10;;;0.33;;
5339;SDS011;2692;48.848;8.924;2023-04-29T00:17:10;1.20;;;0.50;;
5339;SDS011;2692;48.848;8.924;2023-04-29T00:19:36;1.10;;;0.63;;
5339;SDS011;2692;48.848;8.924;2023-04-29T00:22:01;3.33;;;0.80;;
5339;SDS011;2692;48.848;8.924;2023-04-29T00:24:26;0.90;;;0.60;;
5339;SDS011;2692;48.848;8.924;2023-04-29T00:26:52;1.70;;;0.60;;
5339;SDS011;2692;48.848;8.924;2023-04-29T00:29:17;0.93;;;0.57;;
5339;SDS011;2692;48.848;8.924;2023-04-29T00:31:43;1.20;;;0.47;;
5339;SDS011;2692;48.848;8.924;2023-04-29T00:34:08;2.00;;;0.63;;
5339;SDS011;2692;48.848;8.924;2023-04-29T00:36:34;1.00;;;0.50;;
5339;SDS011;2692;48.848;8.924;2023-04-29T00:38:59;1.50;;;0.80;;
5339;SDS011;2692;48.848;8.924;2023-04-29T00:41:24;0.90;;;0.30;;
5339;SDS011;2692;48.848;8.924;2023-04-29T00:43:50;1.17;;;0.50;;
5339;SDS011;2692;48.848;8.924;2023-04-29T00:46:16;1.67;;;0.53;;
5339;SDS011;2692;48.848;8.924;2023-04-29T00:48:42;1.00;;;0.50;;
5339;SDS011;2692;48.848;8.924;2023-04-29T00:51:07;1.10;;;0.40;;
5339;SDS011;2692;48.848;8.924;2023-04-29T00:53:33;1.67;;;0.70;;
5339;SDS011;2692;48.848;8.924;2023-04-29T00:55:59;1.07;;;0.47;;
5339;SDS011;2692;48.848;8.924;2023-04-29T00:58:24;1.00;;;0.50;;
5339;SDS011;2692;48.848;8.924;2023-04-29T01:00:56;1.13;;;0.50;;
5339;SDS011;2692;48.848;8.924;2023-04-29T01:03:22;1.00;;;0.57;;
5339;SDS011;2692;48.848;8.924;2023-04-29T01:05:48;1.40;;;0.87;;
5339;SDS011;2692;48.848;8.924;2023-04-29T01:08:25;2.97;;;0.93;;
5339;SDS011;2692;48.848;8.924;2023-04-29T01:11:07;1.00;;;0.50;;
5339;SDS011;2692;48.848;8.924;2023-04-29T01:13:35;1.00;;;0.50;;
5339;SDS011;2692;48.848;8.924;2023-04-29T01:16:08;1.53;;;0.60;;
5339;SDS011;2692;48.848;8.924;2023-04-29T01:18:36;1.90;;;0.60;;
5339;SDS011;2692;48.848;8.924;2023-04-29T01:21:03;1.10;;;0.80;;
5339;SDS011;2692;48.848;8.924;2023-04-29T01:23:29;1.00;;;0.60;;
5339;SDS011;2692;48.848;8.924;2023-04-29T01:25:55;2.50;;;1.00;;
5339;SDS011;2692;48.848;8.924;2023-04-29T01:31:06;1.23;;;0.60;;
5339;SDS011;2692;48.848;8.924;2023-04-29T01:33:40;1.40;;;0.83;;
5339;SDS011;2692;48.848;8.924;2023-04-29T01:44:42;0.90;;;0.40;;
5339;SDS011;2692;48.848;8.924;2023-04-29T01:47:09;1.13;;;0.60;;
5339;SDS011;2692;48.848;8.924;2023-04-29T01:49:37;1.30;;;1.00;;
5339;SDS011;2692;48.848;8.924;2023-04-29T01:52:03;1.43;;;0.83;;
5339;SDS011;2692;48.848;8.924;2023-04-29T01:54:29;3.00;;;0.80;;
5339;SDS011;2692;48.848;8.924;2023-04-29T01:56:54;1.53;;;0.73;;
5339;SDS011;2692;48.848;8.924;2023-04-29T01:59:20;1.23;;;0.90;;
5339;SDS011;2692;48.848;8.924;2023-04-29T02:01:45;1.47;;;0.60;;
5339;SDS011;2692;48.848;8.924;2023-04-29T02:04:10;2.13;;;0.80;;
5339;SDS011;2692;48.848;8.924;2023-04-29T02:06:35;1.77;;;0.87;;
5339;SDS011;2692;48.848;8.924;2023-04-29T02:09:01;1.30;;;0.60;;
5339;SDS011;2692;48.848;8.924;2023-04-29T02:11:26;1.97;;;0.80;;
5339;SDS011;2692;48.848;8.924;2023-04-29T02:13:51;1.13;;;0.60;;
5339;SDS011;2692;48.848;8.924;2023-04-29T02:16:17;1.50;;;0.70;;
5339;SDS011;2692;48.848;8.924;2023-04-29T02:18:42;2.30;;;0.77;;
5339;SDS011;2692;48.848;8.924;2023-04-29T02:21:08;1.57;;;0.73;;
5339;SDS011;2692;48.848;8.924;2023-04-29T02:23:33;1.10;;;0.70;;
5339;SDS011;2692;48.848;8.924;2023-04-29T02:25:59;1.30;;;0.80;;
5339;SDS011;2692;48.848;8.924;2023-04-29T02:28:25;2.10;;;1.23;;
5339;SDS011;2692;48.848;8.924;2023-04-29T02:30:50;1.93;;;0.80;;
5339;SDS011;2692;48.848;8.924;2023-04-29T02:33:16;1.50;;;0.77;;
5339;SDS011;2692;48.848;8.924;2023-04-29T02:35:42;1.07;;;0.50;;
5339;SDS011;2692;48.848;8.924;2023-04-29T02:38:07;1.97;;;1.00;;
5339;SDS011;2692;48.848;8.924;2023-04-29T02:40:33;1.10;;;0.57;;
5339;SDS011;2692;48.848;8.924;2023-04-29T02:42:58;1.17;;;0.50;;
5339;SDS011;2692;48.848;8.924;2023-04-29T02:45:23;1.57;;;0.60;;
5339;SDS011;2692;48.848;8.924;2023-04-29T02:47:49;1.40;;;0.70;;
5339;SDS011;2692;48.848;8.924;2023-04-29T02:50:14;1.97;;;0.60;;
5339;SDS011;2692;48.848;8.924;2023-04-29T02:52:39;0.87;;;0.50;;
5339;SDS011;2692;48.848;8.924;2023-04-29T02:55:06;1.30;;;0.80;;
5339;SDS011;2692;48.848;8.924;2023-04-29T02:57:31;1.60;;;0.87;;
5339;SDS011;2692;48.848;8.924;2023-04-29T02:59:57;0.90;;;0.50;;
5339;SDS011;2692;48.848;8.924;2023-04-29T03:02:23;1.20;;;0.70;;
5339;SDS011;2692;48.848;8.924;2023-04-29T03:04:48;1.40;;;0.80;;
5339;SDS011;2692;48.848;8.924;2023-04-29T03:07:13;1.00;;;0.50;;
5339;SDS011;2692;48.848;8.924;2023-04-29T03:09:41;1.00;;;0.50;;
5339;SDS011;2692;48.848;8.924;2023-04-29T03:12:06;1.40;;;0.80;;
5339;SDS011;2692;48.848;8.924;2023-04-29T03:14:31;2.03;;;0.97;;
5339;SDS011;2692;48.848;8.924;2023-04-29T03:16:57;1.07;;;0.57;;
5339;SDS011;2692;48.848;8.924;2023-04-29T03:19:22;1.40;;;0.60;;
5339;SDS011;2692;48.848;8.924;2023-04-29T03:21:47;1.87;;;0.90;;
5339;SDS011;2692;48.848;8.924;2023-04-29T03:24:14;1.43;;;0.77;;
5339;SDS011;2692;48.848;8.924;2023-04-29T03:26:39;1.27;;;0.70;;
5339;SDS011;2692;48.848;8.924;2023-04-29T03:29:06;1.93;;;0.83;;
5339;SDS011;2692;48.848;8.924;2023-04-29T03:31:32;1.10;;;0.50;;
5339;SDS011;2692;48.848;8.924;2023-04-29T03:33:57;1.20;;;0.50;;
5339;SDS011;2692;48.848;8.924;2023-04-29T03:36:23;1.07;;;0.50;;
5339;SDS011;2692;48.848;8.924;2023-04-29T03:38:48;1.03;;;0.60;;
5339;SDS011;2692;48.848;8.924;2023-04-29T03:41:13;1.40;;;0.90;;
5339;SDS011;2692;48.848;8.924;2023-04-29T03:43:39;2.13;;;0.77;;
5339;SDS011;2692;48.848;8.924;2023-04-29T03:46:04;1.27;;;0.97;;
5339;SDS011;2692;48.848;8.924;2023-04-29T03:48:30;2.93;;;1.23;;
5339;SDS011;2692;48.848;8.924;2023-04-29T03:50:55;1.17;;;0.80;;
5339;SDS011;2692;48.848;8.924;2023-04-29T03:53:20;1.00;;;0.57;;
5339;SDS011;2692;48.848;8.924;2023-04-29T03:55:46;2.00;;;1.20;;
5339;SDS011;2692;48.848;8.924;2023-04-29T03:58:12;1.37;;;0.97;;
5339;SDS011;2692;48.848;8.924;2023-04-29T04:00:38;1.30;;;0.90;;
5339;SDS011;2692;48.848;8.924;2023-04-29T04:03:03;2.13;;;1.10;;
5339;SDS011;2692;48.848;8.924;2023-04-29T04:05:29;1.37;;;0.80;;
5339;SDS011;2692;48.848;8.924;2023-04-29T04:07:54;1.20;;;1.00;;
5339;SDS011;2692;48.848;8.924;2023-04-29T04:10:19;1.43;;;1.00;;
5339;SDS011;2692;48.848;8.924;2023-04-29T04:12:44;2.43;;;1.70;;
5339;SDS011;2692;48.848;8.924;2023-04-29T04:15:11;1.50;;;0.97;;
5339;SDS011;2692;48.848;8.924;2023-04-29T04:17:36;1.40;;;1.00;;
5339;SDS011;2692;48.848;8.924;2023-04-29T04:20:02;1.93;;;0.93;;
5339;SDS011;2692;48.848;8.924;2023-04-29T04:22:27;7.23;;;0.70;;
5339;SDS011;2692;48.848;8.924;2023-04-29T04:24:55;1.63;;;1.03;;
5339;SDS011;2692;48.848;8.924;2023-04-29T04:27:21;1.93;;;1.17;;
5339;SDS011;2692;48.848;8.924;2023-04-29T04:29:46;3.33;;;1.37;;
5339;SDS011;2692;48.848;8.924;2023-04-29T04:32:11;2.40;;;1.37;;
5339;SDS011;2692;48.848;8.924;2023-04-29T04:34:37;4.47;;;1.57;;
5339;SDS011;2692;48.848;8.924;2023-04-29T04:37:05;3.57;;;1.43;;
5339;SDS011;2692;48.848;8.924;2023-04-29T04:39:30;1.67;;;1.03;;
5339;SDS011;2692;48.848;8.924;2023-04-29T04:41:56;1.73;;;1.20;;
5339;SDS011;2692;48.848;8.924;2023-04-29T04:44:21;1.53;;;0.77;;
5339;SDS011;2692;48.848;8.924;2023-04-29T04:46:46;2.17;;;1.47;;
5339;SDS011;2692;48.848;8.924;2023-04-29T04:49:12;1.33;;;1.10;;
5339;SDS011;2692;48.848;8.924;2023-04-29T04:51:37;1.13;;;0.90;;
5339;SDS011;2692;48.848;8.924;2023-04-29T04:54:02;2.67;;;0.90;;
5339;SDS011;2692;48.848;8.924;2023-04-29T04:56:28;2.60;;;1.50;;
5339;SDS011;2692;48.848;8.924;2023-04-29T04:58:53;4.13;;;1.50;;
5339;SDS011;2692;48.848;8.924;2023-04-29T05:01:18;2.37;;;1.90;;
5339;SDS011;2692;48.848;8.924;2023-04-29T05:03:43;3.10;;;1.60;;
5339;SDS011;2692;48.848;8.924;2023-04-29T05:06:09;2.60;;;1.20;;
5339;SDS011;2692;48.848;8.924;2023-04-29T05:08:34;2.37;;;1.53;;
5339;SDS011;2692;48.848;8.924;2023-04-29T05:10:59;1.63;;;1.13;;
5339;SDS011;2692;48.848;8.924;2023-04-29T05:13:25;6.27;;;1.30;;
5339;SDS011;2692;48.848;8.924;2023-04-29T05:15:50;2.40;;;1.60;;
5339;SDS011;2692;48.848;8.924;2023-04-29T05:18:16;2.00;;;1.80;;
5339;SDS011;2692;48.848;8.924;2023-04-29T05:20:41;1.57;;;1.33;;
5339;SDS011;2692;48.848;8.924;2023-04-29T05:23:06;2.10;;;1.53;;
5339;SDS011;2692;48.848;8.924;2023-04-29T05:25:32;2.27;;;1.27;;
5339;SDS011;2692;48.848;8.924;2023-04-29T05:27:58;4.37;;;2.10;;
5339;SDS011;2692;48.848;8.924;2023-04-29T05:30:23;3.67;;;1.97;;
5339;SDS011;2692;48.848;8.924;2023-04-29T05:32:48;3.30;;;2.50;;
5339;SDS011;2692;48.848;8.924;2023-04-29T05:35:14;2.40;;;1.67;;
5339;SDS011;2692;48.848;8.924;2023-04-29T05:37:39;91.23;;;2.83;;
5339;SDS011;2692;48.848;8.924;2023-04-29T05:40:05;2.40;;;2.00;;
5339;SDS011;2692;48.848;8.924;2023-04-29T05:42:31;4.20;;;2.80;;
5339;SDS011;2692;48.848;8.924;2023-04-29T05:44:56;3.83;;;2.13;;
5339;SDS011;2692;48.848;8.924;2023-04-29T05:47:21;3.83;;;2.23;;
5339;SDS011;2692;48.848;8.924;2023-04-29T05:49:47;4.30;;;1.77;;
5339;SDS011;2692;48.848;8.924;2023-04-29T05:52:13;3.80;;;2.17;;
5339;SDS011;2692;48.848;8.924;2023-04-29T05:54:38;3.10;;;2.50;;
5339;SDS011;2692;48.848;8.924;2023-04-29T05:57:03;2.13;;;1.77;;
5339;SDS011;2692;48.848;8.924;2023-04-29T05:59:29;2.40;;;1.80;;
5339;SDS011;2692;48.848;8.924;2023-04-29T06:01:55;3.27;;;1.97;;
5339;SDS011;2692;48.848;8.924;2023-04-29T06:04:21;4.30;;;2.33;;
5339;SDS011;2692;48.848;8.924;2023-04-29T06:06:47;2.90;;;1.53;;
5339;SDS011;2692;48.848;8.924;2023-04-29T06:09:12;2.37;;;1.77;;
5339;SDS011;2692;48.848;8.924;2023-04-29T06:11:39;3.50;;;1.17;;
5339;SDS011;2692;48.848;8.924;2023-04-29T06:14:04;3.03;;;1.43;;
5339;SDS011;2692;48.848;8.924;2023-04-29T06:16:30;8.10;;;1.93;;
5339;SDS011;2692;48.848;8.924;2023-04-29T06:18:56;1.63;;;0.93;;
5339;SDS011;2692;48.848;8.924;2023-04-29T06:21:21;2.20;;;1.63;;
5339;SDS011;2692;48.848;8.924;2023-04-29T06:23:46;1.73;;;1.23;;
5339;SDS011;2692;48.848;8.924;2023-04-29T06:26:11;1.30;;;1.17;;
5339;SDS011;2692;48.848;8.924;2023-04-29T06:28:37;2.73;;;1.33;;
5339;SDS011;2692;48.848;8.924;2023-04-29T06:31:02;4.00;;;1.50;;
5339;SDS011;2692;48.848;8.924;2023-04-29T06:33:28;1.67;;;1.10;;
5339;SDS011;2692;48.848;8.924;2023-04-29T06:35:54;1.40;;;1.10;;
5339;SDS011;2692;48.848;8.924;2023-04-29T06:38:19;3.37;;;2.00;;
5339;SDS011;2692;48.848;8.924;2023-04-29T06:40:45;1.83;;;1.37;;
5339;SDS011;2692;48.848;8.924;2023-04-29T06:43:10;3.00;;;1.50;;
5339;SDS011;2692;48.848;8.924;2023-04-29T06:45:35;3.30;;;1.57;;
5339;SDS011;2692;48.848;8.924;2023-04-29T06:48:01;1.43;;;0.80;;
5339;SDS011;2692;48.848;8.924;2023-04-29T06:50:26;2.70;;;1.50;;
5339;SDS011;2692;48.848;8.924;2023-04-29T06:52:52;5.03;;;2.23;;
5339;SDS011;2692;48.848;8.924;2023-04-29T06:55:18;1.30;;;1.00;;
5339;SDS011;2692;48.848;8.924;2023-04-29T06:57:43;2.90;;;1.20;;
5339;SDS011;2692;48.848;8.924;2023-04-29T07:00:08;2.03;;;1.20;;
5339;SDS011;2692;48.848;8.924;2023-04-29T07:02:34;1.70;;;1.13;;
5339;SDS011;2692;48.848;8.924;2023-04-29T07:04:59;2.37;;;1.40;;
5339;SDS011;2692;48.848;8.924;2023-04-29T07:07:24;2.00;;;1.03;;
5339;SDS011;2692;48.848;8.924;2023-04-29T07:09:50;1.67;;;1.17;;
5339;SDS011;2692;48.848;8.924;2023-04-29T07:12:18;1.63;;;0.93;;
5339;SDS011;2692;48.848;8.924;2023-04-29T07:14:43;2.30;;;0.97;;
5339;SDS011;2692;48.848;8.924;2023-04-29T07:17:09;2.27;;;1.30;;
5339;SDS011;2692;48.848;8.924;2023-04-29T07:19:34;2.00;;;1.23;;
5339;SDS011;2692;48.848;8.924;2023-04-29T07:21:59;2.60;;;1.10;;
5339;SDS011;2692;48.848;8.924;2023-04-29T07:24:25;1.40;;;0.80;;
5339;SDS011;2692;48.848;8.924;2023-04-29T07:26:50;1.37;;;0.80;;
5339;SDS011;2692;48.848;8.924;2023-04-29T07:29:15;2.30;;;1.60;;
5339;SDS011;2692;48.848;8.924;2023-04-29T07:31:41;2.73;;;1.07;;
5339;SDS011;2692;48.848;8.924;2023-04-29T07:34:06;1.83;;;0.80;;
5339;SDS011;2692;48.848;8.924;2023-04-29T07:36:31;2.03;;;1.13;;
5339;SDS011;2692;48.848;8.924;2023-04-29T07:38:57;2.20;;;0.80;;
5339;SDS011;2692;48.848;8.924;2023-04-29T07:41:23;1.40;;;1.00;;
5339;SDS011;2692;48.848;8.924;2023-04-29T07:43:48;2.50;;;0.90;;
5339;SDS011;2692;48.848;8.924;2023-04-29T07:46:13;2.63;;;1.47;;
5339;SDS011;2692;48.848;8.924;2023-04-29T07:48:40;2.93;;;1.33;;
5339;SDS011;2692;48.848;8.924;2023-04-29T07:51:05;1.50;;;1.20;;
5339;SDS011;2692;48.848;8.924;2023-04-29T07:53:31;1.47;;;0.87;;
5339;SDS011;2692;48.848;8.924;2023-04-29T07:55:56;3.40;;;1.93;;
5339;SDS011;2692;48.848;8.924;2023-04-29T07:58:21;1.73;;;0.80;;
5339;SDS011;2692;48.848;8.924;2023-04-29T08:00:47;1.67;;;0.90;;
5339;SDS011;2692;48.848;8.924;2023-04-29T08:03:12;4.70;;;1.03;;
5339;SDS011;2692;48.848;8.924;2023-04-29T08:05:38;2.10;;;1.07;;
5339;SDS011;2692;48.848;8.924;2023-04-29T08:08:03;1.60;;;0.53;;
5339;SDS011;2692;48.848;8.924;2023-04-29T08:10:29;2.20;;;1.20;;
5339;SDS011;2692;48.848;8.924;2023-04-29T08:12:54;1.87;;;1.13;;
5339;SDS011;2692;48.848;8.924;2023-04-29T08:15:20;2.30;;;1.50;;
5339;SDS011;2692;48.848;8.924;2023-04-29T08:17:45;2.20;;;1.13;;
5339;SDS011;2692;48.848;8.924;2023-04-29T08:20:11;1.90;;;1.37;;
5339;SDS011;2692;48.848;8.924;2023-04-29T08:22:36;2.03;;;1.10;;
5339;SDS011;2692;48.848;8.924;2023-04-29T08:25:05;4.10;;;1.33;;
5339;SDS011;2692;48.848;8.924;2023-04-29T08:27:30;2.43;;;1.20;;
5339;SDS011;2692;48.848;8.924;2023-04-29T08:29:56;2.70;;;1.20;;
5339;SDS011;2692;48.848;8.924;2023-04-29T08:32:21;3.37;;;0.93;;
5339;SDS011;2692;48.848;8.924;2023-04-29T08:34:47;2.10;;;1.50;;
5339;SDS011;2692;48.848;8.924;2023-04-29T08:37:12;2.60;;;1.37;;
5339;SDS011;2692;48.848;8.924;2023-04-29T08:39:38;1.37;;;0.70;;
5339;SDS011;2692;48.848;8.924;2023-04-29T08:42:12;1.83;;;1.30;;
5339;SDS011;2692;48.848;8.924;2023-04-29T08:44:37;4.90;;;1.30;;
5339;SDS011;2692;48.848;8.924;2023-04-29T08:47:04;2.30;;;1.17;;
5339;SDS011;2692;48.848;8.924;2023-04-29T08:49:30;1.83;;;1.00;;
5339;SDS011;2692;48.848;8.924;2023-04-29T08:51:57;2.27;;;1.23;;
5339;SDS011;2692;48.848;8.924;2023-04-29T08:54:23;6.43;;;1.07;;
5339;SDS011;2692;48.848;8.924;2023-04-29T08:56:48;2.53;;;1.10;;
5339;SDS011;2692;48.848;8.924;2023-04-29T08:59:14;2.60;;;1.30;;
5339;SDS011;2692;48.848;8.924;2023-04-29T09:01:41;5.60;;;1.67;;
5339;SDS011;2692;48.848;8.924;2023-04-29T09:04:21;4.23;;;1.70;;
5339;SDS011;2692;48.848;8.924;2023-04-29T09:06:50;5.00;;;2.07;;
5339;SDS011;2692;48.848;8.924;2023-04-29T09:09:16;1.80;;;1.40;;
5339;SDS011;2692;48.848;8.924;2023-04-29T09:11:42;2.90;;;1.67;;
5339;SDS011;2692;48.848;8.924;2023-04-29T09:14:08;2.67;;;1.53;;
5339;SDS011;2692;48.848;8.924;2023-04-29T09:16:33;1.90;;;1.20;;
5339;SDS011;2692;48.848;8.924;2023-04-29T09:19:01;1.30;;;0.80;;
5339;SDS011;2692;48.848;8.924;2023-04-29T09:21:27;1.17;;;0.70;;
5339;SDS011;2692;48.848;8.924;2023-04-29T09:23:54;1.90;;;0.83;;
5339;SDS011;2692;48.848;8.924;2023-04-29T09:26:20;2.60;;;1.33;;
5339;SDS011;2692;48.848;8.924;2023-04-29T09:28:47;1.50;;;0.70;;
5339;SDS011;2692;48.848;8.924;2023-04-29T09:31:13;5.80;;;1.20;;
5339;SDS011;2692;48.848;8.924;2023-04-29T09:33:52;1.90;;;1.13;;
5339;SDS011;2692;48.848;8.924;2023-04-29T09:36:34;3.07;;;1.30;;
5339;SDS011;2692;48.848;8.924;2023-04-29T09:39:01;3.70;;;1.57;;
5339;SDS011;2692;48.848;8.924;2023-04-29T09:41:28;1.70;;;1.20;;
5339;SDS011;2692;48.848;8.924;2023-04-29T09:44:03;2.60;;;1.17;;
5339;SDS011;2692;48.848;8.924;2023-04-29T09:46:35;1.20;;;0.70;;
5339;SDS011;2692;48.848;8.924;2023-04-29T09:49:03;2.00;;;1.00;;
5339;SDS011;2692;48.848;8.924;2023-04-29T09:51:57;2.80;;;1.37;;
5339;SDS011;2692;48.848;8.924;2023-04-29T09:54:24;2.63;;;1.10;;
5339;SDS011;2692;48.848;8.924;2023-04-29T09:56:53;1.67;;;1.17;;
5339;SDS011;2692;48.848;8.924;2023-04-29T09:59:20;3.13;;;1.30;;
5339;SDS011;2692;48.848;8.924;2023-04-29T10:01:47;2.33;;;1.27;;
5339;SDS011;2692;48.848;8.924;2023-04-29T10:04:13;2.80;;;1.67;;
5339;SDS011;2692;48.848;8.924;2023-04-29T10:06:39;2.80;;;1.07;;
5339;SDS011;2692;48.848;8.924;2023-04-29T10:09:06;1.60;;;0.90;;
5339;SDS011;2692;48.848;8.924;2023-04-29T10:11:31;1.67;;;1.17;;
5339;SDS011;2692;48.848;8.924;2023-04-29T10:13:57;2.23;;;1.77;;
5339;SDS011;2692;48.848;8.924;2023-04-29T10:16:27;1.97;;;0.87;;
5339;SDS011;2692;48.848;8.924;2023-04-29T10:18:54;3.77;;;1.20;;
5339;SDS011;2692;48.848;8.924;2023-04-29T10:21:23;2.13;;;1.27;;
5339;SDS011;2692;48.848;8.924;2023-04-29T10:23:52;3.23;;;1.80;;
5339;SDS011;2692;48.848;8.924;2023-04-29T10:26:18;1.93;;;1.20;;
5339;SDS011;2692;48.848;8.924;2023-04-29T10:28:44;2.00;;;0.97;;
5339;SDS011;2692;48.848;8.924;2023-04-29T10:31:11;1.77;;;1.00;;
5339;SDS011;2692;48.848;8.924;2023-04-29T10:33:37;2.03;;;0.80;;
5339;SDS011;2692;48.848;8.924;2023-04-29T10:36:04;3.10;;;1.23;;
5339;SDS011;2692;48.848;8.924;2023-04-29T10:38:33;1.50;;;0.83;;
5339;SDS011;2692;48.848;8.924;2023-04-29T10:41:01;2.70;;;1.10;;
5339;SDS011;2692;48.848;8.924;2023-04-29T10:43:28;4.03;;;1.37;;
5339;SDS011;2692;48.848;8.924;2023-04-29T10:48:44;1.73;;;0.90;;
5339;SDS011;2692;48.848;8.924;2023-04-29T10:51:10;2.90;;;1.33;;
5339;SDS011;2692;48.848;8.924;2023-04-29T10:53:36;2.53;;;1.30;;
5339;SDS011;2692;48.848;8.924;2023-04-29T10:56:34;1.80;;;1.10;;
5339;SDS011;2692;48.848;8.924;2023-04-29T10:59:01;2.10;;;0.90;;
5339;SDS011;2692;48.848;8.924;2023-04-29T11:01:39;1.63;;;0.90;;
5339;SDS011;2692;48.848;8.924;2023-04-29T11:04:07;1.83;;;1.00;;
5339;SDS011;2692;48.848;8.924;2023-04-29T11:11:39;2.80;;;1.27;;
5339;SDS011;2692;48.848;8.924;2023-04-29T11:14:07;3.33;;;1.00;;
5339;SDS011;2692;48.848;8.924;2023-04-29T11:16:35;2.57;;;1.40;;
5339;SDS011;2692;48.848;8.924;2023-04-29T11:21:32;1.10;;;0.57;;
5339;SDS011;2692;48.848;8.924;2023-04-29T11:23:58;3.57;;;1.17;;
5339;SDS011;2692;48.848;8.924;2023-04-29T11:26:25;2.47;;;1.50;;
5339;SDS011;2692;48.848;8.924;2023-04-29T11:28:50;1.80;;;1.20;;
5339;SDS011;2692;48.848;8.924;2023-04-29T11:31:16;3.23;;;1.80;;
5339;SDS011;2692;48.848;8.924;2023-04-29T11:33:42;4.50;;;2.00;;
5339;SDS011;2692;48.848;8.924;2023-04-29T11:36:08;4.63;;;2.10;;
5339;SDS011;2692;48.848;8.924;2023-04-29T11:38:37;3.07;;;2.10;;
5339;SDS011;2692;48.848;8.924;2023-04-29T11:41:04;4.43;;;2.63;;
5339;SDS011;2692;48.848;8.924;2023-04-29T11:43:30;6.33;;;2.70;;
5339;SDS011;2692;48.848;8.924;2023-04-29T11:45:55;2.63;;;2.20;;
5339;SDS011;2692;48.848;8.924;2023-04-29T11:48:24;3.60;;;2.73;;
5339;SDS011;2692;48.848;8.924;2023-04-29T11:50:57;5.70;;;2.70;;
5339;SDS011;2692;48.848;8.924;2023-04-29T11:53:23;5.97;;;3.10;;
5339;SDS011;2692;48.848;8.924;2023-04-29T11:55:51;4.20;;;2.97;;
5339;SDS011;2692;48.848;8.924;2023-04-29T11:58:19;6.60;;;3.37;;
5339;SDS011;2692;48.848;8.924;2023-04-29T12:00:45;4.60;;;2.77;;
5339;SDS011;2692;48.848;8.924;2023-04-29T12:03:14;14.70;;;3.60;;
5339;SDS011;2692;48.848;8.924;2023-04-29T12:05:47;4.83;;;2.87;;
5339;SDS011;2692;48.848;8.924;2023-04-29T12:08:13;7.93;;;3.50;;
5339;SDS011;2692;48.848;8.924;2023-04-29T12:10:38;3.23;;;2.23;;
5339;SDS011;2692;48.848;8.924;2023-04-29T12:13:05;12.43;;;2.10;;
5339;SDS011;2692;48.848;8.924;2023-04-29T12:15:30;9.10;;;2.30;;
5339;SDS011;2692;48.848;8.924;2023-04-29T12:17:56;5.43;;;3.10;;
5339;SDS011;2692;48.848;8.924;2023-04-29T12:20:22;15.10;;;3.60;;
5339;SDS011;2692;48.848;8.924;2023-04-29T12:22:47;4.90;;;3.03;;
5339;SDS011;2692;48.848;8.924;2023-04-29T12:25:13;3.60;;;2.00;;
5339;SDS011;2692;48.848;8.924;2023-04-29T12:27:40;4.80;;;2.17;;
5339;SDS011;2692;48.848;8.924;2023-04-29T12:30:07;7.13;;;3.37;;
5339;SDS011;2692;48.848;8.924;2023-04-29T12:32:36;4.67;;;3.00;;
5339;SDS011;2692;48.848;8.924;2023-04-29T12:35:02;5.97;;;3.07;;
5339;SDS011;2692;48.848;8.924;2023-04-29T12:37:27;6.80;;;3.90;;
5339;SDS011;2692;48.848;8.924;2023-04-29T12:39:53;5.60;;;3.70;;
5339;SDS011;2692;48.848;8.924;2023-04-29T12:42:19;4.83;;;2.77;;
5339;SDS011;2692;48.848;8.924;2023-04-29T12:44:44;12.87;;;2.60;;
5339;SDS011;2692;48.848;8.924;2023-04-29T12:47:13;4.40;;;3.00;;
5339;SDS011;2692;48.848;8.924;2023-04-29T12:49:42;3.97;;;2.23;;
5339;SDS011;2692;48.848;8.924;2023-04-29T12:52:08;6.07;;;3.50;;
5339;SDS011;2692;48.848;8.924;2023-04-29T12:54:37;5.90;;;2.83;;
5339;SDS011;2692;48.848;8.924;2023-04-29T12:57:05;5.53;;;3.10;;
5339;SDS011;2692;48.848;8.924;2023-04-29T12:59:31;4.33;;;2.87;;
5339;SDS011;2692;48.848;8.924;2023-04-29T13:01:56;4.20;;;2.77;;
5339;SDS011;2692;48.848;8.924;2023-04-29T13:04:22;4.30;;;3.20;;
5339;SDS011;2692;48.848;8.924;2023-04-29T13:06:49;6.50;;;2.90;;
5339;SDS011;2692;48.848;8.924;2023-04-29T13:09:18;7.73;;;4.20;;
5339;SDS011;2692;48.848;8.924;2023-04-29T13:11:43;4.03;;;2.70;;
5339;SDS011;2692;48.848;8.924;2023-04-29T13:14:08;6.07;;;4.00;;
5339;SDS011;2692;48.848;8.924;2023-04-29T13:16:35;6.57;;;4.47;;
5339;SDS011;2692;48.848;8.924;2023-04-29T13:19:00;4.40;;;2.97;;
5339;SDS011;2692;48.848;8.924;2023-04-29T13:21:26;5.97;;;2.83;;
5339;SDS011;2692;48.848;8.924;2023-04-29T13:23:52;5.60;;;3.57;;
5339;SDS011;2692;48.848;8.924;2023-04-29T13:26:17;6.47;;;3.97;;
5339;SDS011;2692;48.848;8.924;2023-04-29T13:28:43;5.57;;;2.77;;
5339;SDS011;2692;48.848;8.924;2023-04-29T13:31:08;7.00;;;3.87;;
5339;SDS011;2692;48.848;8.924;2023-04-29T13:33:33;6.20;;;3.67;;
5339;SDS011;2692;48.848;8.924;2023-04-29T13:35:58;4.50;;;2.90;;
5339;SDS011;2692;48.848;8.924;2023-04-29T13:38:24;4.87;;;3.10;;
5339;SDS011;2692;48.848;8.924;2023-04-29T13:40:50;6.33;;;3.60;;
5339;SDS011;2692;48.848;8.924;2023-04-29T13:43:15;11.23;;;3.90;;
5339;SDS011;2692;48.848;8.924;2023-04-29T13:45:41;6.67;;;4.00;;
5339;SDS011;2692;48.848;8.924;2023-04-29T13:48:06;6.80;;;3.73;;
5339;SDS011;2692;48.848;8.924;2023-04-29T13:50:32;6.13;;;3.57;;
5339;SDS011;2692;48.848;8.924;2023-04-29T13:52:57;5.10;;;3.30;;
5339;SDS011;2692;48.848;8.924;2023-04-29T13:55:23;7.57;;;3.40;;
5339;SDS011;2692;48.848;8.924;2023-04-29T13:57:48;5.60;;;3.20;;
5339;SDS011;2692;48.848;8.924;2023-04-29T14:00:14;9.73;;;4.13;;
5339;SDS011;2692;48.848;8.924;2023-04-29T14:02:40;5.40;;;3.23;;
5339;SDS011;2692;48.848;8.924;2023-04-29T14:05:05;4.73;;;3.70;;
5339;SDS011;2692;48.848;8.924;2023-04-29T14:07:31;5.37;;;2.83;;
5339;SDS011;2692;48.848;8.924;2023-04-29T14:09:56;7.53;;;3.67;;
5339;SDS011;2692;48.848;8.924;2023-04-29T14:12:21;6.50;;;3.63;;
5339;SDS011;2692;48.848;8.924;2023-04-29T14:14:47;6.23;;;3.37;;
5339;SDS011;2692;48.848;8.924;2023-04-29T14:17:12;8.57;;;3.47;;
5339;SDS011;2692;48.848;8.924;2023-04-29T14:19:38;7.37;;;3.90;;
5339;SDS011;2692;48.848;8.924;2023-04-29T14:22:03;7.27;;;3.50;;
5339;SDS011;2692;48.848;8.924;2023-04-29T14:24:28;6.30;;;3.20;;
5339;SDS011;2692;48.848;8.924;2023-04-29T14:26:53;5.30;;;3.03;;
5339;SDS011;2692;48.848;8.924;2023-04-29T14:29:19;4.90;;;2.40;;
5339;SDS011;2692;48.848;8.924;2023-04-29T14:31:44;4.47;;;3.43;;
5339;SDS011;2692;48.848;8.924;2023-04-29T14:34:10;6.03;;;3.50;;
5339;SDS011;2692;48.848;8.924;2023-04-29T14:36:35;7.13;;;3.30;;
5339;SDS011;2692;48.848;8.924;2023-04-29T14:39:01;7.60;;;3.87;;
5339;SDS011;2692;48.848;8.924;2023-04-29T14:41:27;11.90;;;2.70;;
5339;SDS011;2692;48.848;8.924;2023-04-29T14:43:53;4.80;;;2.93;;
5339;SDS011;2692;48.848;8.924;2023-04-29T14:46:18;11.17;;;4.73;;
5339;SDS011;2692;48.848;8.924;2023-04-29T14:48:43;7.40;;;3.53;;
5339;SDS011;2692;48.848;8.924;2023-04-29T14:51:09;6.80;;;3.73;;
5339;SDS011;2692;48.848;8.924;2023-04-29T14:53:35;4.07;;;2.67;;
5339;SDS011;2692;48.848;8.924;2023-04-29T14:56:01;5.10;;;3.53;;
5339;SDS011;2692;48.848;8.924;2023-04-29T14:58:27;2.90;;;2.40;;
5339;SDS011;2692;48.848;8.924;2023-04-29T15:00:52;11.23;;;4.20;;
5339;SDS011;2692;48.848;8.924;2023-04-29T15:03:18;6.63;;;3.40;;
5339;SDS011;2692;48.848;8.924;2023-04-29T15:05:43;5.87;;;2.67;;
5339;SDS011;2692;48.848;8.924;2023-04-29T15:08:08;3.90;;;2.33;;
5339;SDS011;2692;48.848;8.924;2023-04-29T15:10:34;2.93;;;2.37;;
5339;SDS011;2692;48.848;8.924;2023-04-29T15:13:00;4.77;;;2.67;;
5339;SDS011;2692;48.848;8.924;2023-04-29T15:15:25;4.30;;;2.70;;
5339;SDS011;2692;48.848;8.924;2023-04-29T15:17:51;7.87;;;3.70;;
5339;SDS011;2692;48.848;8.924;2023-04-29T15:20:16;2.53;;;1.57;;
5339;SDS011;2692;48.848;8.924;2023-04-29T15:22:41;5.53;;;3.53;;
5339;SDS011;2692;48.848;8.924;2023-04-29T15:25:07;5.37;;;3.17;;
5339;SDS011;2692;48.848;8.924;2023-04-29T15:27:34;4.23;;;2.77;;
5339;SDS011;2692;48.848;8.924;2023-04-29T15:29:59;4.57;;;2.77;;
5339;SDS011;2692;48.848;8.924;2023-04-29T15:32:25;8.00;;;2.53;;
5339;SDS011;2692;48.848;8.924;2023-04-29T15:34:55;5.00;;;3.10;;